createdAt,value
2019-02-25T00:01:06.274Z,21.54
2019-02-25T00:03:32.924Z,21.58
2019-02-25T00:05:59.572Z,21.59
2019-02-25T00:08:26.253Z,21.57
2019-02-25T00:10:52.979Z,21.58
2019-02-25T00:13:19.638Z,21.59
2019-02-25T00:15:46.332Z,21.64
2019-02-25T00:18:12.993Z,21.64
2019-02-25T00:20:39.653Z,21.63
2019-02-25T00:23:06.326Z,21.67
2019-02-25T00:25:32.971Z,21.65
2019-02-25T00:27:59.638Z,21.64
2019-02-25T00:30:26.288Z,21.67
2019-02-25T00:32:52.987Z,21.70
2019-02-25T00:35:19.625Z,21.69
2019-02-25T00:37:46.291Z,21.67
2019-02-25T00:40:12.956Z,21.65
2019-02-25T00:42:39.621Z,21.66
2019-02-25T00:45:06.267Z,21.64
2019-02-25T00:47:32.910Z,21.65
2019-02-25T00:49:59.588Z,21.66
2019-02-25T00:52:26.256Z,21.66
2019-02-25T00:54:52.915Z,21.62
2019-02-25T00:57:19.588Z,21.63
2019-02-25T00:59:46.244Z,21.66
2019-02-25T01:02:12.921Z,21.59
2019-02-25T01:04:39.625Z,21.42
2019-02-25T01:07:06.320Z,21.06
2019-02-25T01:09:32.989Z,20.68
2019-02-25T01:11:59.650Z,20.62
2019-02-25T01:14:26.317Z,20.79
2019-02-25T01:16:52.989Z,20.90
2019-02-25T01:19:19.638Z,20.99
2019-02-25T01:21:46.303Z,21.09
2019-02-25T01:24:12.975Z,21.09
2019-02-25T01:26:39.619Z,21.14
2019-02-25T01:29:06.278Z,21.08
2019-02-25T01:31:32.923Z,21.19
2019-02-25T01:33:59.628Z,21.22
2019-02-25T01:36:26.293Z,21.23
2019-02-25T01:38:52.946Z,21.18
2019-02-25T01:41:19.670Z,21.21
2019-02-25T01:43:46.310Z,21.26
2019-02-25T01:46:13.021Z,21.29
2019-02-25T01:48:39.678Z,21.31
2019-02-25T01:51:06.342Z,21.30
2019-02-25T01:53:32.997Z,21.33
2019-02-25T01:55:59.662Z,21.34
2019-02-25T01:58:26.306Z,21.32
2019-02-25T02:00:52.958Z,21.33
2019-02-25T02:03:19.646Z,21.34
2019-02-25T02:05:46.289Z,21.33
2019-02-25T02:08:13.019Z,21.34
2019-02-25T02:10:39.702Z,21.35
2019-02-25T02:13:14.032Z,21.33
2019-02-25T02:15:33.017Z,21.36
2019-02-25T02:17:59.679Z,21.36
2019-02-25T02:20:26.355Z,21.36
2019-02-25T02:22:53.012Z,21.38
2019-02-25T02:25:19.688Z,21.37
2019-02-25T02:27:46.345Z,21.37
2019-02-25T02:30:13.009Z,21.38
2019-02-25T02:32:39.697Z,21.35
2019-02-25T02:35:06.368Z,21.38
2019-02-25T02:37:33.051Z,21.40
2019-02-25T02:39:59.700Z,21.38
2019-02-25T02:42:26.346Z,21.38
2019-02-25T02:44:53.011Z,21.39
2019-02-25T02:47:19.654Z,21.40
2019-02-25T02:49:46.364Z,21.33
2019-02-25T02:52:13.026Z,21.21
2019-02-25T02:54:39.672Z,20.99
2019-02-25T02:57:06.409Z,21.03
2019-02-25T02:59:33.079Z,21.07
2019-02-25T03:01:59.745Z,21.08
2019-02-25T03:04:26.407Z,21.08
2019-02-25T03:06:53.059Z,21.12
2019-02-25T03:09:19.720Z,21.15
2019-02-25T03:11:46.412Z,21.18
2019-02-25T03:14:13.018Z,21.18
2019-02-25T03:16:39.802Z,21.22
2019-02-25T03:19:06.553Z,21.24
2019-02-25T03:21:33.223Z,21.23
2019-02-25T03:23:59.916Z,21.26
2019-02-25T03:26:26.613Z,21.24
2019-02-25T03:28:53.252Z,21.23
2019-02-25T03:31:19.916Z,21.26
2019-02-25T03:33:46.570Z,21.24
2019-02-25T03:36:13.210Z,21.25
2019-02-25T03:38:40.044Z,21.27
2019-02-25T03:41:06.744Z,21.27
2019-02-25T03:43:33.436Z,21.29
2019-02-25T03:46:00.087Z,21.30
2019-02-25T03:48:26.757Z,21.30
2019-02-25T03:50:53.487Z,21.31
2019-02-25T03:53:20.145Z,21.32
2019-02-25T03:55:46.783Z,21.28
2019-02-25T03:58:13.486Z,21.28
2019-02-25T04:00:40.144Z,21.26
2019-02-25T04:03:06.840Z,21.27
2019-02-25T04:05:33.491Z,21.26
2019-02-25T04:08:00.141Z,21.34
2019-02-25T04:10:26.789Z,20.55
2019-02-25T04:12:53.443Z,19.39
2019-02-25T04:15:20.107Z,19.09
2019-02-25T04:17:46.810Z,19.00
2019-02-25T04:20:13.510Z,19.65
2019-02-25T04:22:40.146Z,20.21
2019-02-25T04:25:06.808Z,20.43
2019-02-25T04:27:33.522Z,20.56
2019-02-25T04:30:00.276Z,20.72
2019-02-25T04:32:26.859Z,20.72
2019-02-25T04:34:53.553Z,20.67
2019-02-25T04:37:20.245Z,20.51
2019-02-25T04:39:46.916Z,20.46
2019-02-25T04:42:13.566Z,20.52
2019-02-25T04:44:40.213Z,20.54
2019-02-25T04:47:06.871Z,20.55
2019-02-25T04:49:33.525Z,20.57
2019-02-25T04:52:00.216Z,20.84
2019-02-25T04:54:26.857Z,20.67
2019-02-25T04:56:53.529Z,20.77
2019-02-25T04:59:20.242Z,20.92
2019-02-25T05:01:46.898Z,20.87
2019-02-25T05:04:13.562Z,20.96
2019-02-25T05:06:40.258Z,20.89
2019-02-25T05:09:06.922Z,20.91
2019-02-25T05:11:33.570Z,21.04
2019-02-25T05:14:00.253Z,21.08
2019-02-25T05:16:26.904Z,21.24
2019-02-25T05:18:53.572Z,21.28
2019-02-25T05:21:20.223Z,21.12
2019-02-25T05:23:46.909Z,21.04
2019-02-25T05:26:13.546Z,21.12
2019-02-25T05:28:40.205Z,21.11
2019-02-25T05:31:06.910Z,21.02
2019-02-25T05:33:33.628Z,21.11
2019-02-25T05:36:00.291Z,21.15
2019-02-25T05:38:26.944Z,21.44
2019-02-25T05:40:53.746Z,21.73
2019-02-25T05:43:20.395Z,21.99
2019-02-25T05:45:47.047Z,22.06
2019-02-25T05:48:13.738Z,21.74
2019-02-25T05:50:40.383Z,21.88
2019-02-25T05:53:07.082Z,22.39
2019-02-25T05:55:33.743Z,22.66
2019-02-25T05:58:00.409Z,22.80
2019-02-25T06:00:27.053Z,22.88
2019-02-25T06:02:53.716Z,22.22
2019-02-25T06:05:20.403Z,22.26
2019-02-25T06:07:47.050Z,22.34
2019-02-25T06:10:13.717Z,22.48
2019-02-25T06:12:40.383Z,22.48
2019-02-25T06:15:07.060Z,22.59
2019-02-25T06:17:33.796Z,22.51
2019-02-25T06:20:00.408Z,22.31
2019-02-25T06:22:27.112Z,22.31
2019-02-25T06:24:53.770Z,22.45
2019-02-25T06:27:30.293Z,22.62
2019-02-25T06:29:47.165Z,22.74
2019-02-25T06:32:13.825Z,22.84
2019-02-25T06:34:40.518Z,23.02
2019-02-25T06:37:07.206Z,23.13
2019-02-25T06:39:33.896Z,23.27
2019-02-25T06:42:00.551Z,23.21
2019-02-25T06:44:27.458Z,23.24
2019-02-25T06:46:54.165Z,23.36
2019-02-25T06:49:29.663Z,23.39
2019-02-25T06:51:56.408Z,23.47
2019-02-25T06:54:23.099Z,23.52
2019-02-25T06:56:49.738Z,23.58
2019-02-25T06:59:16.506Z,23.60
2019-02-25T07:01:43.216Z,23.48
2019-02-25T07:04:09.875Z,23.48
2019-02-25T07:06:36.594Z,23.41
2019-02-25T07:09:03.234Z,23.46
2019-02-25T07:11:29.914Z,23.30
2019-02-25T07:13:56.625Z,23.33
2019-02-25T07:16:23.284Z,23.00
2019-02-25T07:18:50.009Z,22.85
2019-02-25T07:21:16.696Z,22.98
2019-02-25T07:23:43.354Z,23.10
2019-02-25T07:26:10.135Z,23.16
2019-02-25T07:28:36.802Z,23.32
2019-02-25T07:31:03.606Z,23.33
2019-02-25T07:33:30.287Z,23.33
2019-02-25T07:35:56.960Z,23.39
2019-02-25T07:38:23.632Z,23.46
2019-02-25T07:40:50.310Z,23.45
2019-02-25T07:43:17.109Z,23.62
2019-02-25T07:45:43.851Z,23.65
2019-02-25T07:48:10.573Z,23.52
2019-02-25T07:50:37.246Z,23.61
2019-02-25T07:53:03.932Z,23.64
2019-02-25T07:55:30.632Z,23.65
2019-02-25T07:57:57.302Z,23.41
2019-02-25T08:00:24.097Z,23.13
2019-02-25T08:02:50.720Z,23.18
2019-02-25T08:05:17.428Z,23.42
2019-02-25T08:07:44.106Z,23.61
2019-02-25T08:10:10.838Z,23.56
2019-02-25T08:12:37.522Z,23.63
2019-02-25T08:15:04.247Z,23.76
2019-02-25T08:17:30.879Z,23.82
2019-02-25T08:19:57.537Z,23.76
2019-02-25T08:22:24.218Z,23.84
2019-02-25T08:24:50.929Z,23.86
2019-02-25T08:27:17.596Z,23.89
2019-02-25T08:29:44.317Z,23.75
2019-02-25T08:32:10.987Z,23.86
2019-02-25T08:34:37.640Z,23.82
2019-02-25T08:37:04.398Z,23.74
2019-02-25T08:39:31.032Z,23.78
2019-02-25T08:41:57.767Z,23.75
2019-02-25T08:44:26.073Z,23.44
2019-02-25T08:46:52.789Z,23.33
2019-02-25T08:49:19.457Z,23.45
2019-02-25T08:51:46.231Z,23.70
2019-02-25T08:54:12.503Z,23.84
2019-02-25T08:56:39.171Z,23.93
2019-02-25T08:59:05.881Z,24.16
2019-02-25T09:01:32.617Z,24.01
2019-02-25T09:03:59.344Z,24.07
2019-02-25T09:06:26.387Z,24.10
2019-02-25T09:08:53.125Z,24.04
2019-02-25T09:11:19.861Z,24.06
2019-02-25T09:13:46.502Z,24.07
2019-02-25T09:16:13.226Z,24.19
2019-02-25T09:18:39.952Z,24.14
2019-02-25T09:21:08.113Z,24.07
2019-02-25T09:23:33.362Z,23.83
2019-02-25T09:26:00.097Z,23.69
2019-02-25T09:28:26.839Z,23.43
2019-02-25T09:30:55.567Z,23.33
2019-02-25T09:33:22.269Z,23.64
2019-02-25T09:35:48.978Z,23.89
2019-02-25T09:38:15.713Z,23.99
2019-02-25T09:40:42.400Z,24.13
2019-02-25T09:43:09.048Z,24.39
2019-02-25T09:45:35.727Z,24.12
2019-02-25T09:48:02.403Z,24.18
2019-02-25T09:50:29.089Z,24.16
2019-02-25T09:52:55.750Z,24.06
2019-02-25T09:55:23.690Z,24.19
2019-02-25T09:57:49.199Z,24.13
2019-02-25T10:00:15.866Z,24.10
2019-02-25T10:02:42.612Z,24.14
2019-02-25T10:05:09.274Z,24.11
2019-02-25T10:07:36.093Z,24.26
2019-02-25T10:10:02.764Z,24.21
2019-02-25T10:12:29.449Z,24.21
2019-02-25T10:14:56.098Z,24.35
2019-02-25T10:17:24.029Z,24.46
2019-02-25T10:19:49.487Z,24.31
2019-02-25T10:22:16.133Z,24.28
2019-02-25T10:24:42.832Z,24.25
2019-02-25T10:27:09.506Z,24.29
2019-02-25T10:29:36.273Z,24.42
2019-02-25T10:32:04.858Z,24.43
2019-02-25T10:34:30.023Z,24.36
2019-02-25T10:36:56.703Z,24.40
2019-02-25T10:39:23.348Z,24.49
2019-02-25T10:41:51.155Z,24.44
2019-02-25T10:44:16.762Z,24.45
2019-02-25T10:46:44.895Z,24.44
2019-02-25T10:49:11.574Z,24.42
2019-02-25T10:51:38.784Z,24.42
2019-02-25T10:54:03.659Z,24.48
2019-02-25T10:56:30.355Z,24.65
2019-02-25T10:58:57.699Z,24.62
2019-02-25T11:01:24.633Z,24.60
2019-02-25T11:03:52.029Z,24.57
2019-02-25T11:06:17.112Z,24.52
2019-02-25T11:08:45.644Z,24.51
2019-02-25T11:11:10.483Z,24.49
2019-02-25T11:13:37.190Z,24.43
2019-02-25T11:16:04.009Z,24.49
2019-02-25T11:18:30.679Z,24.41
2019-02-25T11:20:58.944Z,24.32
2019-02-25T11:23:24.072Z,24.42
2019-02-25T11:25:51.505Z,24.47
2019-02-25T11:28:25.512Z,24.37
2019-02-25T11:30:45.053Z,24.38
2019-02-25T11:33:10.792Z,24.44
2019-02-25T11:35:39.378Z,24.46
2019-02-25T11:38:04.445Z,24.37
2019-02-25T11:40:33.495Z,24.33
2019-02-25T11:42:57.957Z,24.36
2019-02-25T11:45:24.669Z,24.22
2019-02-25T11:47:51.328Z,24.33
2019-02-25T11:50:18.064Z,24.42
2019-02-25T11:52:44.810Z,24.35
2019-02-25T11:55:12.896Z,24.33
2019-02-25T11:57:38.183Z,24.31
2019-02-25T12:00:04.845Z,24.34
2019-02-25T12:02:31.620Z,24.32
2019-02-25T12:04:58.277Z,24.31
2019-02-25T12:07:25.039Z,24.35
2019-02-25T12:09:51.717Z,24.31
2019-02-25T12:12:18.420Z,24.45
2019-02-25T12:14:45.086Z,24.48
2019-02-25T12:17:11.850Z,24.54
2019-02-25T12:19:38.518Z,24.48
2019-02-25T12:22:05.183Z,24.43
2019-02-25T12:24:31.879Z,24.39
2019-02-25T12:26:58.535Z,24.49
2019-02-25T12:29:25.280Z,24.50
2019-02-25T12:31:51.944Z,24.51
2019-02-25T12:34:18.603Z,24.51
2019-02-25T12:36:45.310Z,24.45
2019-02-25T12:39:12.020Z,24.42
2019-02-25T12:41:38.745Z,24.43
2019-02-25T12:44:05.377Z,24.52
2019-02-25T12:46:32.045Z,24.46
2019-02-25T12:48:58.715Z,24.56
2019-02-25T12:51:25.465Z,24.46
2019-02-25T12:53:52.152Z,24.44
2019-02-25T12:56:18.828Z,24.43
2019-02-25T12:58:45.494Z,24.47
2019-02-25T13:01:12.213Z,24.43
2019-02-25T13:03:38.946Z,24.56
2019-02-25T13:06:05.633Z,24.63
2019-02-25T13:08:32.303Z,24.57
2019-02-25T13:10:58.966Z,24.65
2019-02-25T13:13:25.623Z,24.57
2019-02-25T13:15:52.301Z,24.77
2019-02-25T13:18:19.468Z,24.71
2019-02-25T13:20:46.105Z,24.64
2019-02-25T13:23:12.775Z,24.51
2019-02-25T13:25:39.423Z,24.44
2019-02-25T13:28:06.092Z,24.38
2019-02-25T13:30:32.777Z,24.44
2019-02-25T13:32:59.526Z,24.47
2019-02-25T13:35:26.209Z,24.63
2019-02-25T13:37:52.894Z,24.46
2019-02-25T13:40:19.571Z,24.49
2019-02-25T13:42:46.402Z,24.48
2019-02-25T13:45:13.048Z,24.67
2019-02-25T13:47:39.896Z,24.57
2019-02-25T13:50:06.705Z,24.67
2019-02-25T13:52:33.369Z,24.63
2019-02-25T13:55:00.095Z,24.69
2019-02-25T13:57:26.775Z,24.80
2019-02-25T13:59:53.454Z,24.70
2019-02-25T14:02:20.126Z,24.78
2019-02-25T14:04:47.011Z,24.74
2019-02-25T14:07:13.467Z,24.79
2019-02-25T14:09:40.291Z,24.73
2019-02-25T14:12:06.877Z,24.68
2019-02-25T14:14:34.625Z,24.68
2019-02-25T14:17:01.287Z,24.63
2019-02-25T14:19:27.955Z,24.75
2019-02-25T14:21:55.988Z,24.71
2019-02-25T14:24:21.291Z,24.79
2019-02-25T14:26:47.974Z,24.92
2019-02-25T14:29:14.621Z,24.72
2019-02-25T14:31:41.286Z,24.75
2019-02-25T14:34:07.953Z,24.69
2019-02-25T14:36:34.664Z,24.52
2019-02-25T14:39:02.220Z,24.62
2019-02-25T14:41:28.008Z,24.64
2019-02-25T14:43:56.143Z,24.60
2019-02-25T14:46:22.636Z,24.88
2019-02-25T14:48:48.024Z,24.77
2019-02-25T14:51:14.681Z,24.61
2019-02-25T14:53:42.296Z,24.48
2019-02-25T14:56:08.027Z,24.38
2019-02-25T14:58:36.168Z,24.41
2019-02-25T15:01:01.544Z,24.32
2019-02-25T15:03:29.141Z,24.25
2019-02-25T15:05:57.083Z,24.33
2019-02-25T15:08:24.105Z,24.32
2019-02-25T15:10:49.707Z,24.35
2019-02-25T15:13:16.476Z,24.23
2019-02-25T15:15:44.084Z,24.10
2019-02-25T15:18:09.822Z,24.08
2019-02-25T15:20:36.513Z,24.04
2019-02-25T15:23:03.162Z,24.02
2019-02-25T15:25:33.144Z,24.02
2019-02-25T15:27:56.515Z,23.98
2019-02-25T15:30:25.094Z,24.04
2019-02-25T15:32:55.656Z,23.96
2019-02-25T15:35:16.606Z,24.00
2019-02-25T15:37:44.795Z,23.91
2019-02-25T15:40:11.788Z,23.94
2019-02-25T15:42:38.481Z,23.88
2019-02-25T15:45:03.368Z,23.92
2019-02-25T15:47:30.037Z,23.89
2019-02-25T15:50:03.453Z,23.94
2019-02-25T15:52:27.584Z,23.86
2019-02-25T15:54:52.890Z,23.84
2019-02-25T15:57:20.607Z,23.82
2019-02-25T15:59:46.743Z,23.82
2019-02-25T16:02:14.274Z,23.78
2019-02-25T16:04:41.905Z,23.77
2019-02-25T16:07:08.392Z,23.75
2019-02-25T16:09:33.984Z,23.76
2019-02-25T16:12:00.971Z,23.77
2019-02-25T16:14:27.662Z,23.86
2019-02-25T16:16:53.529Z,23.84
2019-02-25T16:19:20.196Z,23.77
2019-02-25T16:21:46.851Z,23.76
2019-02-25T16:24:14.050Z,23.79
2019-02-25T16:26:40.605Z,23.81
2019-02-25T16:29:08.923Z,23.71
2019-02-25T16:31:35.342Z,23.66
2019-02-25T16:34:00.217Z,23.63
2019-02-25T16:36:28.308Z,23.76
2019-02-25T16:38:55.792Z,23.65
2019-02-25T16:41:27.065Z,23.59
2019-02-25T16:43:46.882Z,23.63
2019-02-25T16:46:15.824Z,23.60
2019-02-25T16:48:40.252Z,23.61
2019-02-25T16:51:07.927Z,23.57
2019-02-25T16:53:36.941Z,23.60
2019-02-25T16:56:00.302Z,23.57
2019-02-25T16:58:27.627Z,23.55
2019-02-25T17:00:56.219Z,23.49
2019-02-25T17:03:20.419Z,23.54
2019-02-25T17:05:47.802Z,23.50
2019-02-25T17:08:13.890Z,23.49
2019-02-25T17:10:40.512Z,23.47
2019-02-25T17:13:08.119Z,23.50
2019-02-25T17:15:33.925Z,23.48
2019-02-25T17:18:00.656Z,23.42
2019-02-25T17:20:28.022Z,23.45
2019-02-25T17:22:53.976Z,23.36
2019-02-25T17:25:20.638Z,23.34
2019-02-25T17:27:47.302Z,23.11
2019-02-25T17:30:15.270Z,22.83
2019-02-25T17:32:42.454Z,22.66
2019-02-25T17:35:07.495Z,22.76
2019-02-25T17:37:35.586Z,22.98
2019-02-25T17:40:05.806Z,23.01
2019-02-25T17:42:28.584Z,23.05
2019-02-25T17:44:55.660Z,23.14
2019-02-25T17:47:24.308Z,23.17
2019-02-25T17:49:47.494Z,23.28
2019-02-25T17:52:16.144Z,23.27
2019-02-25T17:54:40.838Z,23.31
2019-02-25T17:57:08.050Z,23.30
2019-02-25T17:59:34.194Z,23.34
2019-02-25T18:02:02.288Z,23.39
2019-02-25T18:04:28.314Z,23.28
2019-02-25T18:06:54.184Z,23.27
2019-02-25T18:09:22.209Z,23.24
2019-02-25T18:11:47.758Z,23.26
2019-02-25T18:14:15.295Z,23.17
2019-02-25T18:16:43.610Z,23.17
2019-02-25T18:19:09.194Z,23.11
2019-02-25T18:21:34.283Z,23.12
2019-02-25T18:24:00.953Z,23.16
2019-02-25T18:26:28.616Z,23.14
2019-02-25T18:28:54.284Z,23.15
2019-02-25T18:31:20.964Z,23.13
2019-02-25T18:33:48.614Z,23.11
2019-02-25T18:36:14.262Z,23.12
2019-02-25T18:38:40.912Z,23.13
2019-02-25T18:41:09.257Z,23.08
2019-02-25T18:43:34.258Z,23.09
2019-02-25T18:46:02.599Z,23.05
2019-02-25T18:48:27.634Z,23.03
2019-02-25T18:50:56.680Z,23.04
2019-02-25T18:53:21.240Z,23.02
2019-02-25T18:55:47.877Z,22.98
2019-02-25T18:58:15.938Z,23.05
2019-02-25T19:00:42.485Z,23.02
2019-02-25T19:03:07.643Z,22.98
2019-02-25T19:05:34.320Z,22.97
2019-02-25T19:08:01.031Z,22.97
2019-02-25T19:10:27.693Z,22.94
2019-02-25T19:12:55.959Z,22.94
2019-02-25T19:15:20.994Z,22.95
2019-02-25T19:17:48.463Z,22.91
2019-02-25T19:20:14.373Z,22.95
2019-02-25T19:22:41.803Z,22.89
2019-02-25T19:25:09.594Z,22.91
2019-02-25T19:27:35.845Z,22.90
2019-02-25T19:30:02.976Z,22.93
2019-02-25T19:32:27.811Z,22.91
2019-02-25T19:34:56.243Z,22.88
2019-02-25T19:37:21.227Z,22.83
2019-02-25T19:39:48.818Z,22.72
2019-02-25T19:42:15.467Z,22.69
2019-02-25T19:44:41.257Z,22.74
2019-02-25T19:47:09.742Z,22.73
2019-02-25T19:49:36.619Z,22.79
2019-02-25T19:52:01.254Z,22.81
2019-02-25T19:54:29.400Z,22.83
2019-02-25T19:56:56.173Z,22.86
2019-02-25T19:59:22.231Z,22.88
2019-02-25T20:01:47.912Z,22.91
2019-02-25T20:04:18.341Z,22.90
2019-02-25T20:06:44.484Z,22.93
2019-02-25T20:09:07.941Z,22.96
2019-02-25T20:11:34.582Z,22.95
2019-02-25T20:14:01.718Z,22.97
2019-02-25T20:16:29.810Z,22.99
2019-02-25T20:18:56.052Z,22.95
2019-02-25T20:21:22.541Z,22.95
2019-02-25T20:23:49.577Z,22.95
2019-02-25T20:26:15.590Z,22.88
2019-02-25T20:28:42.953Z,22.80
2019-02-25T20:31:08.385Z,22.83
2019-02-25T20:33:35.198Z,22.81
2019-02-25T20:36:03.012Z,22.70
2019-02-25T20:38:29.620Z,22.63
2019-02-25T20:40:55.352Z,22.66
2019-02-25T20:43:21.824Z,22.67
2019-02-25T20:45:48.230Z,22.71
2019-02-25T20:48:14.600Z,22.75
2019-02-25T20:50:41.251Z,22.77
2019-02-25T20:53:09.198Z,22.79
2019-02-25T20:55:34.606Z,22.82
2019-02-25T20:58:01.251Z,22.85
2019-02-25T21:00:27.912Z,22.85
2019-02-25T21:02:54.576Z,22.88
2019-02-25T21:05:22.765Z,22.86
2019-02-25T21:07:48.222Z,22.84
2019-02-25T21:10:14.556Z,22.87
2019-02-25T21:12:43.143Z,22.88
2019-02-25T21:15:07.869Z,22.87
2019-02-25T21:17:35.583Z,22.84
2019-02-25T21:20:02.924Z,22.77
2019-02-25T21:22:29.503Z,22.67
2019-02-25T21:24:55.895Z,22.58
2019-02-25T21:27:26.161Z,22.62
2019-02-25T21:29:47.947Z,22.65
2019-02-25T21:32:17.180Z,22.66
2019-02-25T21:34:41.344Z,22.70
2019-02-25T21:37:08.007Z,22.67
2019-02-25T21:39:36.530Z,22.71
2019-02-25T21:42:01.386Z,22.71
2019-02-25T21:44:29.036Z,22.73
2019-02-25T21:46:56.246Z,22.73
2019-02-25T21:49:25.082Z,22.73
2019-02-25T21:51:48.179Z,22.76
2019-02-25T21:54:14.792Z,22.76
2019-02-25T21:56:41.416Z,22.78
2019-02-25T21:59:08.753Z,22.78
2019-02-25T22:01:36.762Z,22.80
2019-02-25T22:04:01.460Z,22.80
2019-02-25T22:06:29.575Z,22.81
2019-02-25T22:08:56.794Z,22.82
2019-02-25T22:11:22.138Z,22.86
2019-02-25T22:13:48.103Z,22.83
2019-02-25T22:16:14.747Z,22.85
2019-02-25T22:18:41.413Z,22.86
2019-02-25T22:21:09.448Z,22.89
2019-02-25T22:23:35.498Z,22.89
2019-02-25T22:26:01.394Z,22.85
2019-02-25T22:28:28.873Z,22.82
2019-02-25T22:30:54.743Z,22.78
2019-02-25T22:33:27.406Z,22.77
2019-02-25T22:35:49.903Z,22.72
2019-02-25T22:38:14.815Z,22.68
2019-02-25T22:40:41.474Z,22.67
2019-02-25T22:43:09.872Z,22.67
2019-02-25T22:45:35.917Z,22.64
2019-02-25T22:48:01.544Z,22.61
2019-02-25T22:50:29.145Z,22.63
2019-02-25T22:52:58.269Z,22.61
2019-02-25T22:55:22.690Z,22.62
2019-02-25T22:57:50.932Z,22.60
2019-02-25T23:00:14.976Z,22.57
2019-02-25T23:02:43.472Z,22.56
2019-02-25T23:05:10.598Z,22.47
2019-02-25T23:07:38.810Z,22.32
2019-02-25T23:10:01.637Z,22.41
2019-02-25T23:12:29.410Z,22.42
2019-02-25T23:14:56.058Z,22.44
2019-02-25T23:17:24.591Z,22.47
2019-02-25T23:19:51.235Z,22.49
2019-02-25T23:22:17.900Z,22.51
2019-02-25T23:24:44.563Z,22.54
2019-02-25T23:27:11.291Z,22.57
2019-02-25T23:29:37.951Z,22.57
2019-02-25T23:32:04.599Z,22.62
2019-02-25T23:34:31.267Z,22.62
2019-02-25T23:36:57.970Z,22.63
2019-02-25T23:39:24.654Z,22.65
2019-02-25T23:41:51.352Z,22.63
2019-02-25T23:44:19.751Z,22.65
2019-02-25T23:46:44.630Z,22.67
2019-02-25T23:49:11.658Z,22.67
2019-02-25T23:51:39.522Z,22.69
2019-02-25T23:54:05.002Z,22.67
2019-02-25T23:56:31.847Z,22.68
2019-02-25T23:58:58.395Z,22.71
